createdAt,value
2023-05-08T00:01:26.985Z,16.30
2023-05-08T00:02:59.077Z,15.30
2023-05-08T00:04:31.317Z,16.27
2023-05-08T00:06:06.664Z,16.98
2023-05-08T00:07:38.846Z,18.08
2023-05-08T00:09:11.488Z,17.77
2023-05-08T00:10:43.575Z,17.17
2023-05-08T00:12:15.776Z,17.83
2023-05-08T00:13:47.947Z,18.00
2023-05-08T00:15:20.202Z,20.17
2023-05-08T00:16:52.366Z,19.10
2023-05-08T00:18:24.388Z,18.63
2023-05-08T00:19:56.549Z,20.20
2023-05-08T00:21:28.537Z,19.15
2023-05-08T00:23:00.587Z,19.55
2023-05-08T00:24:32.562Z,21.00
2023-05-08T00:26:04.714Z,20.57
2023-05-08T00:27:36.652Z,20.10
2023-05-08T00:29:08.544Z,20.67
2023-05-08T00:30:40.626Z,20.67
2023-05-08T00:32:12.655Z,20.48
2023-05-08T00:33:44.647Z,24.45
2023-05-08T00:35:16.631Z,23.60
2023-05-08T00:36:48.760Z,22.17
2023-05-08T00:38:20.766Z,22.13
2023-05-08T00:39:52.944Z,22.17
2023-05-08T00:41:24.986Z,21.20
2023-05-08T00:42:56.986Z,20.75
2023-05-08T00:44:28.946Z,21.33
2023-05-08T00:46:01.899Z,21.47
2023-05-08T00:47:34.689Z,20.65
2023-05-08T00:50:38.569Z,21.42
2023-05-08T00:52:10.813Z,21.67
2023-05-08T00:53:44.762Z,22.65
2023-05-08T00:55:16.883Z,20.55
2023-05-08T00:56:51.181Z,20.45
2023-05-08T00:58:23.691Z,20.83
2023-05-08T00:59:56.002Z,21.45
2023-05-08T01:01:28.129Z,21.42
2023-05-08T01:03:00.905Z,22.60
2023-05-08T01:06:06.927Z,21.02
2023-05-08T01:07:39.353Z,22.83
2023-05-08T01:09:11.704Z,22.45
2023-05-08T01:11:15.961Z,22.48
2023-05-08T01:13:09.808Z,21.05
2023-05-08T01:15:43.195Z,21.23
2023-05-08T01:17:25.046Z,22.05
2023-05-08T01:19:02.504Z,21.95
2023-05-08T01:20:37.475Z,22.95
2023-05-08T01:22:30.776Z,23.00
2023-05-08T01:24:38.497Z,23.02
2023-05-08T01:26:28.866Z,23.35
2023-05-08T01:28:12.574Z,22.10
2023-05-08T01:30:38.358Z,21.75
2023-05-08T01:32:25.588Z,21.45
2023-05-08T01:34:05.583Z,21.70
2023-05-08T01:35:51.192Z,21.33
2023-05-08T01:37:31.347Z,22.42
2023-05-08T01:39:25.064Z,22.15
2023-05-08T01:41:07.674Z,22.55
2023-05-08T01:42:51.286Z,22.77
2023-05-08T01:44:25.351Z,23.35
2023-05-08T01:45:58.587Z,23.35
2023-05-08T01:47:33.899Z,23.30
2023-05-08T01:49:09.784Z,22.33
2023-05-08T01:50:46.474Z,23.08
2023-05-08T01:52:25.729Z,21.95
2023-05-08T01:54:01.660Z,21.98
2023-05-08T01:55:36.258Z,20.52
2023-05-08T01:57:09.979Z,20.42
2023-05-08T01:58:42.505Z,22.02
2023-05-08T02:00:17.060Z,21.33
2023-05-08T02:01:51.249Z,21.15
2023-05-08T02:03:23.770Z,20.73
2023-05-08T02:04:56.005Z,21.65
2023-05-08T02:06:28.772Z,21.77
2023-05-08T02:09:33.133Z,21.30
2023-05-08T02:11:06.515Z,20.25
2023-05-08T02:12:39.383Z,21.98
2023-05-08T02:15:43.516Z,21.42
2023-05-08T02:17:18.292Z,21.33
2023-05-08T02:18:52.703Z,20.35
2023-05-08T02:20:25.481Z,19.70
2023-05-08T02:21:58.808Z,19.45
2023-05-08T02:23:31.873Z,19.85
2023-05-08T02:25:04.224Z,19.10
2023-05-08T02:26:36.943Z,20.30
2023-05-08T02:28:09.542Z,19.27
2023-05-08T02:29:42.661Z,20.02
2023-05-08T02:31:15.107Z,19.42
2023-05-08T02:32:48.416Z,20.23
2023-05-08T02:34:21.996Z,20.05
2023-05-08T02:35:55.357Z,20.13
2023-05-08T02:37:27.889Z,19.85
2023-05-08T02:39:00.758Z,20.25
2023-05-08T02:40:33.004Z,20.50
2023-05-08T02:42:05.257Z,20.10
2023-05-08T02:43:37.492Z,20.17
2023-05-08T02:45:10.164Z,19.38
2023-05-08T02:48:36.515Z,20.27
2023-05-08T02:50:18.891Z,19.40
2023-05-08T02:52:05.880Z,19.10
2023-05-08T02:53:43.616Z,20.05
2023-05-08T02:55:21.830Z,21.13
2023-05-08T02:57:01.157Z,21.00
2023-05-08T02:58:51.846Z,21.17
2023-05-08T03:00:33.333Z,21.50
2023-05-08T03:02:12.928Z,21.63
2023-05-08T03:03:47.710Z,22.15
2023-05-08T03:05:31.315Z,21.63
2023-05-08T03:07:04.428Z,20.67
2023-05-08T03:08:37.555Z,20.05
2023-05-08T03:10:13.580Z,20.83
2023-05-08T03:11:49.359Z,21.77
2023-05-08T03:13:21.775Z,22.33
2023-05-08T03:15:05.062Z,22.40
2023-05-08T03:16:40.280Z,20.77
2023-05-08T03:18:16.871Z,21.10
2023-05-08T03:19:50.846Z,21.92
2023-05-08T03:21:24.725Z,21.90
2023-05-08T03:22:57.527Z,21.90
2023-05-08T03:26:03.988Z,22.30
2023-05-08T03:27:37.031Z,23.30
2023-05-08T03:29:09.273Z,22.15
2023-05-08T03:30:42.075Z,22.17
2023-05-08T03:32:17.653Z,23.00
2023-05-08T03:35:23.363Z,21.00
2023-05-08T03:36:55.892Z,22.25
2023-05-08T03:38:28.254Z,22.23
2023-05-08T03:40:00.369Z,22.45
2023-05-08T03:41:32.462Z,21.08
2023-05-08T03:43:07.388Z,21.00
2023-05-08T03:44:39.768Z,21.75
2023-05-08T03:46:12.290Z,23.52
2023-05-08T03:47:44.836Z,26.58
2023-05-08T03:49:17.998Z,26.08
2023-05-08T03:50:50.971Z,28.40
2023-05-08T03:52:23.888Z,29.00
2023-05-08T03:53:56.031Z,30.90
2023-05-08T03:55:33.075Z,30.80
2023-05-08T03:57:06.090Z,31.42
2023-05-08T03:58:50.039Z,31.33
2023-05-08T04:02:29.579Z,30.80
2023-05-08T04:04:08.154Z,31.52
2023-05-08T04:06:08.316Z,32.65
2023-05-08T04:08:06.181Z,32.20
2023-05-08T04:09:55.688Z,34.25
2023-05-08T04:11:50.365Z,34.10
2023-05-08T04:15:08.300Z,31.88
2023-05-08T04:16:48.952Z,34.08
2023-05-08T04:18:29.149Z,33.65
2023-05-08T04:20:04.818Z,34.75
2023-05-08T04:21:39.754Z,34.33
2023-05-08T04:23:15.364Z,34.67
2023-05-08T04:24:48.627Z,35.05
2023-05-08T04:26:22.679Z,35.30
2023-05-08T04:27:57.893Z,35.65
2023-05-08T04:29:30.693Z,34.88
2023-05-08T04:31:04.131Z,34.75
2023-05-08T04:32:38.310Z,36.40
2023-05-08T04:34:11.630Z,35.75
2023-05-08T04:35:43.933Z,36.00
2023-05-08T04:37:29.331Z,36.20
2023-05-08T04:39:03.936Z,37.53
2023-05-08T04:42:08.402Z,36.75
2023-05-08T04:43:40.985Z,38.53
2023-05-08T04:45:14.188Z,37.65
2023-05-08T04:46:46.528Z,39.30
2023-05-08T04:48:19.231Z,38.90
2023-05-08T04:49:51.557Z,40.20
2023-05-08T04:51:23.605Z,44.55
2023-05-08T04:52:56.092Z,44.33
2023-05-08T04:54:28.342Z,44.60
2023-05-08T04:56:00.353Z,44.35
2023-05-08T04:57:32.648Z,42.85
2023-05-08T04:59:04.694Z,45.28
2023-05-08T05:00:36.739Z,42.90
2023-05-08T05:02:09.512Z,42.40
2023-05-08T05:05:14.479Z,42.78
2023-05-08T05:06:46.756Z,44.28
2023-05-08T05:08:19.017Z,46.88
2023-05-08T05:09:51.075Z,46.90
2023-05-08T05:11:23.383Z,45.33
2023-05-08T05:12:55.423Z,45.72
2023-05-08T05:14:27.684Z,44.88
2023-05-08T05:16:00.310Z,45.92
2023-05-08T05:17:33.710Z,46.88
2023-05-08T05:19:05.869Z,44.88
2023-05-08T05:20:37.909Z,44.72
2023-05-08T05:22:10.352Z,44.03
2023-05-08T05:23:42.452Z,43.88
2023-05-08T05:25:14.639Z,44.42
2023-05-08T05:26:47.030Z,42.50
2023-05-08T05:28:19.065Z,44.75
2023-05-08T05:29:51.103Z,43.95
2023-05-08T05:31:23.179Z,42.78
2023-05-08T05:32:55.404Z,45.75
2023-05-08T05:34:28.239Z,44.53
2023-05-08T05:36:00.831Z,43.10
2023-05-08T05:37:32.823Z,42.75
2023-05-08T05:39:04.781Z,43.30
2023-05-08T05:40:38.795Z,44.42
2023-05-08T05:42:10.904Z,43.47
2023-05-08T05:43:42.842Z,46.10
2023-05-08T05:45:15.375Z,42.97
2023-05-08T05:48:19.362Z,42.85
2023-05-08T05:49:51.285Z,44.97
2023-05-08T05:51:23.239Z,47.23
2023-05-08T05:52:55.481Z,43.55
2023-05-08T05:54:27.426Z,45.03
2023-05-08T05:56:00.048Z,44.67
2023-05-08T05:57:32.371Z,45.00
2023-05-08T05:59:04.512Z,42.70
2023-05-08T06:00:36.474Z,45.03
2023-05-08T06:02:10.664Z,43.33
2023-05-08T06:03:43.563Z,42.65
2023-05-08T06:05:15.592Z,44.55
2023-05-08T06:06:47.534Z,42.78
2023-05-08T06:08:20.149Z,41.78
2023-05-08T06:09:53.426Z,41.55
2023-05-08T06:11:25.909Z,41.63
2023-05-08T06:12:58.394Z,43.97
2023-05-08T06:14:31.289Z,45.65
2023-05-08T06:16:06.537Z,42.42
2023-05-08T06:17:38.604Z,41.33
2023-05-08T06:19:11.116Z,41.85
2023-05-08T06:20:43.591Z,41.75
2023-05-08T06:22:15.529Z,41.28
2023-05-08T06:23:47.445Z,42.73
2023-05-08T06:25:19.786Z,42.25
2023-05-08T06:26:51.953Z,41.30
2023-05-08T06:28:26.224Z,41.58
2023-05-08T06:29:58.180Z,41.80
2023-05-08T06:31:30.173Z,41.35
2023-05-08T06:33:02.192Z,38.88
2023-05-08T06:34:34.272Z,38.25
2023-05-08T06:36:06.982Z,38.78
2023-05-08T06:37:38.924Z,40.85
2023-05-08T06:39:10.920Z,40.97
2023-05-08T06:40:44.418Z,41.33
2023-05-08T06:42:16.428Z,39.33
2023-05-08T06:43:51.227Z,38.05
2023-05-08T06:45:23.187Z,41.47
2023-05-08T06:46:55.551Z,41.67
2023-05-08T06:48:29.528Z,39.90
2023-05-08T06:50:01.534Z,40.08
2023-05-08T06:51:35.713Z,41.10
2023-05-08T06:53:08.300Z,42.75
2023-05-08T06:54:43.156Z,41.38
2023-05-08T06:56:15.070Z,40.97
2023-05-08T06:57:46.973Z,41.60
2023-05-08T06:59:18.881Z,42.53
2023-05-08T07:00:50.783Z,39.07
2023-05-08T07:02:22.950Z,41.42
2023-05-08T07:03:54.922Z,41.13
2023-05-08T07:05:27.104Z,39.25
2023-05-08T07:06:59.033Z,39.95
2023-05-08T07:08:32.591Z,40.78
2023-05-08T07:10:07.191Z,39.15
2023-05-08T07:11:39.788Z,40.50
2023-05-08T07:13:11.903Z,39.30
2023-05-08T07:14:44.066Z,39.45
2023-05-08T07:16:16.606Z,40.08
2023-05-08T07:17:48.563Z,39.83
2023-05-08T07:19:22.339Z,39.15
2023-05-08T07:20:54.486Z,40.55
2023-05-08T07:22:26.505Z,38.80
2023-05-08T07:23:58.465Z,38.70
2023-05-08T07:25:30.352Z,38.58
2023-05-08T07:27:02.514Z,36.47
2023-05-08T07:28:34.555Z,40.00
2023-05-08T07:30:07.236Z,37.65
2023-05-08T07:31:42.288Z,38.28
2023-05-08T07:33:14.448Z,38.45
2023-05-08T07:34:46.504Z,38.08
2023-05-08T07:36:18.496Z,35.40
2023-05-08T07:37:50.615Z,38.72
2023-05-08T07:39:22.560Z,37.70
2023-05-08T07:40:57.505Z,38.53
2023-05-08T07:42:29.596Z,35.03
2023-05-08T07:44:01.631Z,36.30
2023-05-08T07:45:35.103Z,34.85
2023-05-08T07:47:07.268Z,33.88
2023-05-08T07:48:39.349Z,33.85
2023-05-08T07:50:11.605Z,32.92
2023-05-08T07:51:43.785Z,31.30
2023-05-08T07:53:15.902Z,30.85
2023-05-08T07:54:47.859Z,32.78
2023-05-08T07:56:19.869Z,31.02
2023-05-08T07:57:51.869Z,32.08
2023-05-08T07:59:23.853Z,30.15
2023-05-08T08:00:55.932Z,32.83
2023-05-08T08:02:27.918Z,30.63
2023-05-08T08:04:00.246Z,32.13
2023-05-08T08:05:32.368Z,31.25
2023-05-08T08:07:04.284Z,32.03
2023-05-08T08:08:36.163Z,34.83
2023-05-08T08:10:08.790Z,34.35
2023-05-08T08:13:12.925Z,33.47
2023-05-08T08:14:44.948Z,34.50
2023-05-08T08:16:16.946Z,33.80
2023-05-08T08:17:49.277Z,33.72
2023-05-08T08:19:21.225Z,32.75
2023-05-08T08:20:53.195Z,32.20
2023-05-08T08:22:26.124Z,30.85
2023-05-08T08:23:59.201Z,32.50
2023-05-08T08:25:31.169Z,33.60
2023-05-08T08:27:03.912Z,32.78
2023-05-08T08:30:16.665Z,31.88
2023-05-08T08:31:49.876Z,32.70
2023-05-08T08:33:21.839Z,32.28
2023-05-08T08:34:53.717Z,33.53
2023-05-08T08:36:25.754Z,32.63
2023-05-08T08:37:58.258Z,32.13
2023-05-08T08:39:33.385Z,32.72
2023-05-08T08:41:05.329Z,32.00
2023-05-08T08:42:37.830Z,33.05
2023-05-08T08:44:09.768Z,32.53
2023-05-08T08:45:41.696Z,33.85
2023-05-08T08:47:15.302Z,34.33
2023-05-08T08:48:48.294Z,31.65
2023-05-08T08:50:20.676Z,33.38
2023-05-08T08:51:55.035Z,35.05
2023-05-08T08:53:27.902Z,33.88
2023-05-08T08:55:02.221Z,34.85
2023-05-08T08:56:34.690Z,35.13
2023-05-08T08:58:16.399Z,38.33
2023-05-08T08:59:48.370Z,38.88
2023-05-08T09:01:21.039Z,39.08
2023-05-08T09:04:27.616Z,36.88
2023-05-08T09:06:03.056Z,37.63
2023-05-08T09:07:34.999Z,38.38
2023-05-08T09:09:06.934Z,40.83
2023-05-08T09:10:39.030Z,40.92
2023-05-08T09:12:11.309Z,39.00
2023-05-08T09:13:43.288Z,40.85
2023-05-08T09:15:15.940Z,38.65
2023-05-08T09:16:48.145Z,37.28
2023-05-08T09:18:20.278Z,38.30
2023-05-08T09:19:52.874Z,36.45
2023-05-08T09:21:24.858Z,38.83
2023-05-08T09:22:57.862Z,36.45
2023-05-08T09:24:58.839Z,36.88
2023-05-08T09:26:37.973Z,33.53
2023-05-08T09:28:17.887Z,33.38
2023-05-08T09:30:06.177Z,35.28
2023-05-08T09:31:40.116Z,34.95
2023-05-08T09:33:12.296Z,32.95
2023-05-08T09:34:53.157Z,33.90
2023-05-08T09:36:29.206Z,34.00
2023-05-08T09:38:01.248Z,35.85
2023-05-08T09:39:33.267Z,34.42
2023-05-08T09:41:12.004Z,34.95
2023-05-08T09:42:44.209Z,35.30
2023-05-08T09:44:16.862Z,34.90
2023-05-08T09:45:48.864Z,33.70
2023-05-08T09:47:22.471Z,32.97
2023-05-08T09:48:58.832Z,35.40
2023-05-08T09:50:31.874Z,34.67
2023-05-08T09:52:04.057Z,34.78
2023-05-08T09:53:36.037Z,33.10
2023-05-08T09:55:08.941Z,34.83
2023-05-08T09:56:41.480Z,34.55
2023-05-08T09:58:13.384Z,33.00
2023-05-08T09:59:45.406Z,31.63
2023-05-08T10:01:36.046Z,33.13
2023-05-08T10:03:08.095Z,31.65
2023-05-08T10:04:40.101Z,30.52
2023-05-08T10:06:13.754Z,28.88
2023-05-08T10:07:45.788Z,31.45
2023-05-08T10:09:17.826Z,28.98
2023-05-08T10:10:50.051Z,27.83
2023-05-08T10:12:21.959Z,30.00
2023-05-08T10:13:53.859Z,28.23
2023-05-08T10:15:30.129Z,29.13
2023-05-08T10:17:08.024Z,26.73
2023-05-08T10:18:42.872Z,25.83
2023-05-08T10:20:16.026Z,26.52
2023-05-08T10:21:49.998Z,27.10
2023-05-08T10:23:22.765Z,25.58
2023-05-08T10:24:58.226Z,23.35
2023-05-08T10:26:31.747Z,22.33
2023-05-08T10:28:19.452Z,22.85
2023-05-08T10:29:55.267Z,23.67
2023-05-08T10:31:29.093Z,24.27
2023-05-08T10:33:03.827Z,22.60
2023-05-08T10:34:39.659Z,21.13
2023-05-08T10:36:13.489Z,22.05
2023-05-08T10:37:46.268Z,22.98
2023-05-08T10:39:18.391Z,21.77
2023-05-08T10:40:53.156Z,22.98
2023-05-08T10:42:26.206Z,22.05
2023-05-08T10:44:01.737Z,22.48
2023-05-08T10:45:35.331Z,23.52
2023-05-08T10:47:19.347Z,24.92
2023-05-08T10:48:56.489Z,24.83
2023-05-08T10:50:38.420Z,22.77
2023-05-08T10:52:14.417Z,22.50
2023-05-08T10:53:56.142Z,23.02
2023-05-08T10:55:32.529Z,21.42
2023-05-08T10:57:11.995Z,21.17
2023-05-08T10:58:44.056Z,22.52
2023-05-08T11:00:16.433Z,21.30
2023-05-08T11:01:49.816Z,18.65
2023-05-08T11:03:31.507Z,23.38
2023-05-08T11:05:21.277Z,22.38
2023-05-08T11:06:53.526Z,22.30
2023-05-08T11:08:27.766Z,22.05
2023-05-08T11:10:08.221Z,19.52
2023-05-08T11:11:41.457Z,19.92
2023-05-08T11:13:13.884Z,20.55
2023-05-08T11:14:55.497Z,18.90
2023-05-08T11:16:55.645Z,17.38
2023-05-08T11:18:38.266Z,16.52
2023-05-08T11:20:23.873Z,17.17
2023-05-08T11:22:11.363Z,17.13
2023-05-08T11:23:43.260Z,16.65
2023-05-08T11:25:15.219Z,17.02
2023-05-08T11:26:50.197Z,15.80
2023-05-08T11:28:22.124Z,16.73
2023-05-08T11:30:31.311Z,16.27
2023-05-08T11:32:03.438Z,16.27
2023-05-08T11:33:41.317Z,15.23
2023-05-08T11:35:15.038Z,17.90
2023-05-08T11:37:02.377Z,20.20
2023-05-08T11:38:38.602Z,22.65
2023-05-08T11:40:47.196Z,23.88
2023-05-08T11:42:24.952Z,24.13
2023-05-08T11:44:02.979Z,27.25
2023-05-08T11:45:35.313Z,26.23
2023-05-08T11:47:08.143Z,27.50
2023-05-08T11:48:40.534Z,29.55
2023-05-08T11:50:13.604Z,30.45
2023-05-08T11:51:47.221Z,30.20
2023-05-08T11:53:19.261Z,27.80
2023-05-08T11:54:51.307Z,30.95
2023-05-08T11:56:23.395Z,31.70
2023-05-08T11:57:56.127Z,30.33
2023-05-08T12:01:00.003Z,31.63
2023-05-08T12:02:46.952Z,31.83
2023-05-08T12:04:19.114Z,30.75
2023-05-08T12:05:51.974Z,31.17
2023-05-08T12:07:23.945Z,33.28
2023-05-08T12:08:55.887Z,32.10
2023-05-08T12:10:27.776Z,31.92
2023-05-08T12:11:59.829Z,32.45
2023-05-08T12:13:32.073Z,32.95
2023-05-08T12:15:11.835Z,31.02
2023-05-08T12:16:43.938Z,32.55
2023-05-08T12:18:17.252Z,32.92
2023-05-08T12:19:49.253Z,33.58
2023-05-08T12:21:21.593Z,31.52
2023-05-08T12:22:54.301Z,33.10
2023-05-08T12:26:00.544Z,29.48
2023-05-08T12:27:32.627Z,28.10
2023-05-08T12:29:08.016Z,29.33
2023-05-08T12:30:40.063Z,28.20
2023-05-08T12:32:12.337Z,30.20
2023-05-08T12:33:44.496Z,28.40
2023-05-08T12:35:16.789Z,26.90
2023-05-08T12:36:48.954Z,28.25
2023-05-08T12:38:26.502Z,28.45
2023-05-08T12:39:58.552Z,28.70
2023-05-08T12:41:30.707Z,28.02
2023-05-08T12:43:06.406Z,28.58
2023-05-08T12:44:38.626Z,29.65
2023-05-08T12:46:12.020Z,29.88
2023-05-08T12:47:47.080Z,30.58
2023-05-08T12:49:29.531Z,30.67
2023-05-08T12:51:05.027Z,30.80
2023-05-08T12:52:37.262Z,30.55
2023-05-08T12:54:09.220Z,30.17
2023-05-08T12:55:52.997Z,30.60
2023-05-08T12:57:25.082Z,28.13
2023-05-08T12:58:59.735Z,27.45
2023-05-08T13:00:39.959Z,28.63
2023-05-08T13:02:18.084Z,29.52
2023-05-08T13:04:01.433Z,29.02
2023-05-08T13:05:39.044Z,28.10
2023-05-08T13:07:11.935Z,29.20
2023-05-08T13:08:44.046Z,26.02
2023-05-08T13:10:16.291Z,26.48
2023-05-08T13:11:48.293Z,26.17
2023-05-08T13:13:26.224Z,28.10
2023-05-08T13:14:58.476Z,26.70
2023-05-08T13:16:30.667Z,25.30
2023-05-08T13:18:02.728Z,26.35
2023-05-08T13:19:35.219Z,27.73
2023-05-08T13:21:07.272Z,27.63
2023-05-08T13:22:39.590Z,26.27
2023-05-08T13:24:11.748Z,26.00
2023-05-08T13:25:44.161Z,24.83
2023-05-08T13:27:16.624Z,23.63
2023-05-08T13:28:48.632Z,25.08
2023-05-08T13:30:22.487Z,25.70
2023-05-08T13:31:54.912Z,25.88
2023-05-08T13:33:27.057Z,26.15
2023-05-08T13:35:00.966Z,26.48
2023-05-08T13:36:33.487Z,24.13
2023-05-08T13:38:06.329Z,24.75
2023-05-08T13:39:38.337Z,24.65
2023-05-08T13:41:10.429Z,24.73
2023-05-08T13:42:42.541Z,23.70
2023-05-08T13:44:14.541Z,20.67
2023-05-08T13:45:46.579Z,23.02
2023-05-08T13:47:18.579Z,21.35
2023-05-08T13:48:50.538Z,23.90
2023-05-08T13:50:22.829Z,24.10
2023-05-08T13:51:57.096Z,22.60
2023-05-08T13:53:29.424Z,22.42
2023-05-08T13:55:01.352Z,21.85
2023-05-08T13:56:33.509Z,23.52
2023-05-08T13:58:05.520Z,20.17
2023-05-08T13:59:37.678Z,22.30
2023-05-08T14:01:25.017Z,21.98
2023-05-08T14:02:58.500Z,21.55
2023-05-08T14:04:30.743Z,20.25
2023-05-08T14:06:02.732Z,19.63
2023-05-08T14:07:35.330Z,19.30
2023-05-08T14:10:40.837Z,19.42
2023-05-08T14:12:13.392Z,21.05
2023-05-08T14:13:45.444Z,20.75
2023-05-08T14:15:17.658Z,22.05
2023-05-08T14:16:51.200Z,22.63
2023-05-08T14:18:23.182Z,21.33
2023-05-08T14:19:55.149Z,19.50
2023-05-08T14:21:27.846Z,19.38
2023-05-08T14:24:32.246Z,17.23
2023-05-08T14:26:04.261Z,20.60
2023-05-08T14:27:36.321Z,21.38
2023-05-08T14:29:08.335Z,20.88
2023-05-08T14:30:40.453Z,19.98
2023-05-08T14:32:12.497Z,21.83
2023-05-08T14:33:44.561Z,23.05
2023-05-08T14:35:16.724Z,23.05
2023-05-08T14:36:48.811Z,20.85
2023-05-08T14:38:20.861Z,19.63
2023-05-08T14:39:54.422Z,20.30
2023-05-08T14:41:30.467Z,22.50
2023-05-08T14:43:02.437Z,21.50
2023-05-08T14:44:34.586Z,23.50
2023-05-08T14:46:06.936Z,23.30
2023-05-08T14:47:39.893Z,23.25
2023-05-08T14:49:13.651Z,21.60
2023-05-08T14:50:47.175Z,19.25
2023-05-08T14:52:19.367Z,17.65
2023-05-08T14:53:51.566Z,18.73
2023-05-08T14:55:23.883Z,17.75
2023-05-08T14:56:56.015Z,16.27
2023-05-08T14:58:28.072Z,16.45
2023-05-08T15:00:00.196Z,15.13
2023-05-08T15:01:32.543Z,17.08
2023-05-08T15:03:04.825Z,15.55
2023-05-08T15:04:41.230Z,13.63
2023-05-08T15:06:13.530Z,10.85
2023-05-08T15:07:45.806Z,12.70
2023-05-08T15:09:17.965Z,12.07
2023-05-08T15:10:50.001Z,11.68
2023-05-08T15:12:22.250Z,15.05
2023-05-08T15:13:54.296Z,16.40
2023-05-08T15:15:26.498Z,15.43
2023-05-08T15:16:58.556Z,14.85
2023-05-08T15:18:30.675Z,11.95
2023-05-08T15:20:06.332Z,10.57
2023-05-08T15:21:38.686Z,10.13
2023-05-08T15:23:10.879Z,6.25
2023-05-08T15:24:42.994Z,5.50
2023-05-08T15:26:15.175Z,4.85
2023-05-08T15:27:53.008Z,5.45
2023-05-08T15:29:26.842Z,6.10
2023-05-08T15:30:58.914Z,5.65
2023-05-08T15:32:31.121Z,5.40
2023-05-08T15:34:03.248Z,4.53
2023-05-08T15:35:35.428Z,4.70
2023-05-08T15:37:07.566Z,5.05
2023-05-08T15:38:40.419Z,5.75
2023-05-08T15:40:12.898Z,5.75
2023-05-08T15:41:45.380Z,5.60
2023-05-08T15:43:17.424Z,5.72
2023-05-08T15:46:24.494Z,6.78
2023-05-08T15:47:56.703Z,6.75
2023-05-08T15:49:28.659Z,5.30
2023-05-08T15:51:00.794Z,6.30
2023-05-08T15:52:32.838Z,5.53
2023-05-08T15:54:04.851Z,5.97
2023-05-08T15:55:36.905Z,4.65
2023-05-08T15:57:08.927Z,3.70
2023-05-08T15:58:41.392Z,3.92
2023-05-08T16:00:14.172Z,4.10
2023-05-08T16:03:19.513Z,3.35
2023-05-08T16:04:51.906Z,3.03
2023-05-08T16:06:23.947Z,3.10
2023-05-08T16:07:56.213Z,3.25
2023-05-08T16:09:28.397Z,3.50
2023-05-08T16:11:01.479Z,3.03
2023-05-08T16:12:33.630Z,3.55
2023-05-08T16:14:05.661Z,3.75
2023-05-08T16:15:37.782Z,3.50
2023-05-08T16:17:09.762Z,3.17
2023-05-08T16:18:41.736Z,3.83
2023-05-08T16:20:13.816Z,4.13
2023-05-08T16:21:47.325Z,3.95
2023-05-08T16:23:19.263Z,4.43
2023-05-08T16:24:54.207Z,5.03
2023-05-08T16:26:26.726Z,4.35
2023-05-08T16:27:59.064Z,5.45
2023-05-08T16:29:30.952Z,5.80
2023-05-08T16:31:04.714Z,5.65
2023-05-08T16:32:36.790Z,5.78
2023-05-08T16:34:08.833Z,6.63
2023-05-08T16:35:40.796Z,5.47
2023-05-08T16:37:12.893Z,5.82
2023-05-08T16:38:44.765Z,7.85
2023-05-08T16:40:16.867Z,9.68
2023-05-08T16:41:48.837Z,9.00
2023-05-08T16:43:20.947Z,9.10
2023-05-08T16:44:52.979Z,9.35
2023-05-08T16:46:29.814Z,10.60
2023-05-08T16:48:03.392Z,9.75
2023-05-08T16:51:08.390Z,12.13
2023-05-08T16:52:40.462Z,13.02
2023-05-08T16:54:12.415Z,11.70
2023-05-08T16:55:44.403Z,12.30
2023-05-08T16:57:16.482Z,12.48
2023-05-08T16:58:48.384Z,12.32
2023-05-08T17:00:21.574Z,11.80
2023-05-08T17:01:53.935Z,12.15
2023-05-08T17:03:26.129Z,12.88
2023-05-08T17:04:58.350Z,12.90
2023-05-08T17:06:30.361Z,13.15
2023-05-08T17:08:02.525Z,11.98
2023-05-08T17:09:35.049Z,12.98
2023-05-08T17:11:07.201Z,11.38
2023-05-08T17:12:39.230Z,11.40
2023-05-08T17:14:11.447Z,11.02
2023-05-08T17:15:43.509Z,10.93
2023-05-08T17:17:15.572Z,11.50
2023-05-08T17:18:47.716Z,10.45
2023-05-08T17:20:19.926Z,10.95
2023-05-08T17:21:52.095Z,11.73
2023-05-08T17:23:24.126Z,11.45
2023-05-08T17:24:56.287Z,10.23
2023-05-08T17:26:28.654Z,11.57
2023-05-08T17:28:04.466Z,12.13
2023-05-08T17:29:36.696Z,10.82
2023-05-08T17:31:09.877Z,10.80
2023-05-08T17:32:41.957Z,11.82
2023-05-08T17:34:14.002Z,11.45
2023-05-08T17:35:46.029Z,11.20
2023-05-08T17:37:18.063Z,10.50
2023-05-08T17:38:52.226Z,11.55
2023-05-08T17:40:26.056Z,10.32
2023-05-08T17:41:58.115Z,9.93
2023-05-08T17:43:31.256Z,10.77
2023-05-08T17:45:05.172Z,9.85
2023-05-08T17:46:37.129Z,9.30
2023-05-08T17:48:09.323Z,8.57
2023-05-08T17:49:41.413Z,8.85
2023-05-08T17:51:14.232Z,8.65
2023-05-08T17:52:46.332Z,7.78
2023-05-08T17:54:18.388Z,8.27
2023-05-08T17:55:50.553Z,8.82
2023-05-08T17:57:22.643Z,7.40
2023-05-08T17:58:55.743Z,7.03
2023-05-08T18:00:27.756Z,7.68
2023-05-08T18:01:59.775Z,6.95
2023-05-08T18:03:32.119Z,7.32
2023-05-08T18:05:04.334Z,6.47
2023-05-08T18:06:36.595Z,6.75
2023-05-08T18:08:08.790Z,5.90
2023-05-08T18:09:41.536Z,6.00
2023-05-08T18:12:49.835Z,6.07
2023-05-08T18:14:21.954Z,6.07
2023-05-08T18:15:54.019Z,5.32
2023-05-08T18:17:29.629Z,5.53
2023-05-08T18:19:01.675Z,5.07
2023-05-08T18:20:33.664Z,5.07
2023-05-08T18:22:05.534Z,5.15
2023-05-08T18:23:37.519Z,4.63
2023-05-08T18:25:09.603Z,4.78
2023-05-08T18:26:41.477Z,4.30
2023-05-08T18:28:13.508Z,4.82
2023-05-08T18:29:45.443Z,5.38
2023-05-08T18:31:17.350Z,4.75
2023-05-08T18:32:49.284Z,4.50
2023-05-08T18:34:21.471Z,4.97
2023-05-08T18:35:53.385Z,4.78
2023-05-08T18:37:25.514Z,5.25
2023-05-08T18:38:57.443Z,5.25
2023-05-08T18:40:29.463Z,5.30
2023-05-08T18:42:02.341Z,5.07
2023-05-08T18:43:34.443Z,5.95
2023-05-08T18:45:07.047Z,5.90
2023-05-08T18:46:39.066Z,5.32
2023-05-08T18:48:11.648Z,5.30
2023-05-08T18:49:44.289Z,5.90
2023-05-08T18:52:48.178Z,5.28
2023-05-08T18:54:20.207Z,5.82
2023-05-08T18:55:52.592Z,4.88
2023-05-08T18:57:24.928Z,5.78
2023-05-08T18:58:57.045Z,5.43
2023-05-08T19:00:29.190Z,5.63
2023-05-08T19:02:01.221Z,5.95
2023-05-08T19:03:33.240Z,6.32
2023-05-08T19:05:05.772Z,5.97
2023-05-08T19:06:37.762Z,6.25
2023-05-08T19:08:09.862Z,6.70
2023-05-08T19:09:41.902Z,6.22
2023-05-08T19:11:13.875Z,6.00
2023-05-08T19:12:46.036Z,6.40
2023-05-08T19:14:18.067Z,5.18
2023-05-08T19:15:50.157Z,6.40
2023-05-08T19:17:22.357Z,6.57
2023-05-08T19:18:54.386Z,6.70
2023-05-08T19:20:26.381Z,6.30
2023-05-08T19:21:58.357Z,6.20
2023-05-08T19:23:30.378Z,5.53
2023-05-08T19:25:02.468Z,5.25
2023-05-08T19:26:34.468Z,6.32
2023-05-08T19:28:06.528Z,6.55
2023-05-08T19:29:38.619Z,7.35
2023-05-08T19:31:10.673Z,6.78
2023-05-08T19:32:42.794Z,6.68
2023-05-08T19:34:14.890Z,5.90
2023-05-08T19:35:47.856Z,6.32
2023-05-08T19:37:19.805Z,6.40
2023-05-08T19:38:51.803Z,6.45
2023-05-08T19:40:23.750Z,7.03
2023-05-08T19:41:56.574Z,6.65
2023-05-08T19:45:00.563Z,7.05
2023-05-08T19:46:32.651Z,6.45
2023-05-08T19:48:10.569Z,7.57
2023-05-08T19:49:49.441Z,7.32
2023-05-08T19:51:21.624Z,8.10
2023-05-08T19:52:53.688Z,8.18
2023-05-08T19:54:25.603Z,8.18
2023-05-08T19:55:57.557Z,8.85
2023-05-08T19:57:29.519Z,8.43
2023-05-08T19:59:01.562Z,8.70
2023-05-08T20:00:33.512Z,8.70
2023-05-08T20:02:06.117Z,9.25
2023-05-08T20:03:38.163Z,9.23
2023-05-08T20:06:45.567Z,9.15
2023-05-08T20:08:17.627Z,8.88
2023-05-08T20:09:49.591Z,9.13
2023-05-08T20:11:22.319Z,9.57
2023-05-08T20:14:26.361Z,9.45
2023-05-08T20:15:58.891Z,10.02
2023-05-08T20:17:31.025Z,10.70
2023-05-08T20:19:03.078Z,10.20
2023-05-08T20:20:35.229Z,10.30
2023-05-08T20:22:07.233Z,9.45
2023-05-08T20:23:40.576Z,10.25
2023-05-08T20:25:12.733Z,9.45
2023-05-08T20:26:44.736Z,10.80
2023-05-08T20:28:22.349Z,10.73
2023-05-08T20:29:54.289Z,9.02
2023-05-08T20:31:27.947Z,9.10
2023-05-08T20:33:05.068Z,9.77
2023-05-08T20:34:37.457Z,8.40
2023-05-08T20:36:09.550Z,10.40
2023-05-08T20:37:45.616Z,9.15
2023-05-08T20:39:17.633Z,9.82
2023-05-08T20:40:49.640Z,9.45
2023-05-08T20:42:21.590Z,9.45
2023-05-08T20:43:53.540Z,9.13
2023-05-08T20:45:25.601Z,9.95
2023-05-08T20:46:57.702Z,9.45
2023-05-08T20:48:29.914Z,9.40
2023-05-08T20:50:02.338Z,9.13
2023-05-08T20:51:34.409Z,8.55
2023-05-08T20:53:06.501Z,8.93
2023-05-08T20:54:38.752Z,9.02
2023-05-08T20:56:10.930Z,9.00
2023-05-08T20:57:42.891Z,10.43
2023-05-08T20:59:16.802Z,10.23
2023-05-08T21:00:48.773Z,9.15
2023-05-08T21:02:20.726Z,10.57
2023-05-08T21:03:52.689Z,10.48